KCSM/CSM METAR and TAF weather

Enter ICAO airport designator
Station Type Date Time Source
KCSM METAR 2021/05/10 00:53 UTC NOAA

KCSM 100053Z AUTO 05015KT 10SM CLR 17/07 A2997 RMK AO2 SLP138 T01720067


Station Type Date Time Source
KCSM Decoded METAR 2021/05/10 00:53 UTC NOAA

CLINTON-SHERMAN AIRPORT, OK, United States (KCSM) 35-21E 99-12W 588M
May 09, 2021 - 08:53 PM EDT / 2021.05.10 0053 UTC
Wind: from the NE (050 degrees) at 17 MPH (15 KT):0
Visibility: 10 mile(s):0
Sky conditions: clear
Temperature: 63.0 F (17.2 C)
Dew Point: 44.1 F (6.7 C)
Relative Humidity: 50%
Pressure (altimeter): 29.97 in. Hg (1014 hPa)
ob: KCSM 100053Z AUTO 05015KT 10SM CLR 17/07 A2997 RMK AO2 SLP138 T01720067
cycle: 1

Station Type Date Time Source
KCSM TAF 2021/05/09 18:48 UTC NOAA

TAF KCSM 091746Z 0918/1018 36016G25KT P6SM SKC
FM092300 04014G22KT P6SM FEW250

Example: see airport list